Time;durP1;ratioP1;P1;durP2;ratioP2;P2;SDS_P1;SDS_P2;PMS_P1;PMS_P2;Temp;Humidity;BMP_temperature;BMP_pressure;BME280_temperature;BME280_humidity;BME280_pressure;Samples;Min_cycle;Max_cycle;Signal;HPM_P1;HPM_P2
2022/10/27 00:00:51;;;;;;;6.88;2.90;;;;;;;13.98;100.00;101945.06;5069036;28;20365;-71
2022/10/27 00:03:17;;;;;;;7.20;3.00;;;;;;;13.96;100.00;101943.63;5053957;28;20444;-71
2022/10/27 00:05:44;;;;;;;10.27;3.00;;;;;;;13.92;100.00;101947.81;5051303;28;20094;-69
2022/10/27 00:08:18;;;;;;;7.18;2.70;;;;;;;13.94;100.00;101943.03;5051162;28;20040;-71
2022/10/27 00:10:44;;;;;;;7.15;3.10;;;;;;;13.90;100.00;101956.22;5052420;28;20079;-70
2022/10/27 00:13:10;;;;;;;8.93;2.97;;;;;;;13.87;100.00;101945.78;5067475;28;20410;-71
2022/10/27 00:15:36;;;;;;;9.35;3.00;;;;;;;13.83;100.00;101941.84;5072944;28;20517;-70
2022/10/27 00:18:08;;;;;;;7.32;3.03;;;;;;;13.81;100.00;101949.38;5072363;28;20100;-69
2022/10/27 00:20:33;;;;;;;7.65;2.65;;;;;;;13.76;100.00;101946.50;5086531;28;20478;-70
2022/10/27 00:22:58;;;;;;;6.45;2.80;;;;;;;13.75;100.00;101947.53;5066536;28;20056;-71
2022/10/27 00:25:24;;;;;;;11.85;2.97;;;;;;;13.72;100.00;101953.41;5052352;28;20021;-69
2022/10/27 00:27:49;;;;;;;7.53;2.95;;;;;;;13.74;100.00;101959.47;5052699;28;20103;-69
2022/10/27 00:30:14;;;;;;;10.98;2.70;;;;;;;13.73;100.00;101952.38;5052435;28;20108;-70
2022/10/27 00:32:40;;;;;;;9.25;2.83;;;;;;;13.67;100.00;101956.78;5060296;28;20440;-70
2022/10/27 00:35:05;;;;;;;5.82;2.55;;;;;;;13.67;100.00;101958.69;5072202;28;20051;-70
2022/10/27 00:37:30;;;;;;;6.85;2.97;;;;;;;13.64;100.00;101954.50;5072723;28;20020;-70
2022/10/27 00:39:56;;;;;;;10.90;3.00;;;;;;;13.67;100.00;101961.41;5072409;28;20021;-71
2022/10/27 00:42:21;;;;;;;11.20;3.03;;;;;;;13.64;100.00;101955.34;5066299;28;20478;-71
2022/10/27 00:44:48;;;;;;;6.47;2.67;;;;;;;13.65;100.00;101967.91;5070906;28;20027;-71
2022/10/27 00:47:25;;;;;;;6.85;2.80;;;;;;;13.67;100.00;101961.41;5072070;28;20075;-70
2022/10/27 00:50:05;;;;;;;7.18;2.70;;;;;;;13.67;100.00;101966.84;5071978;28;20529;-70
2022/10/27 00:52:43;;;;;;;7.10;3.10;;;;;;;13.62;100.00;101971.06;5065943;28;20020;-71
2022/10/27 00:55:21;;;;;;;7.63;2.70;;;;;;;13.64;100.00;101968.94;5057679;28;20461;-70
2022/10/27 00:57:50;;;;;;;4.35;2.45;;;;;;;13.63;100.00;101970.00;5052757;28;20029;-71
2022/10/27 01:00:16;;;;;;;8.40;2.90;;;;;;;13.67;100.00;101964.13;5055663;28;20083;-71
2022/10/27 01:02:43;;;;;;;9.35;2.65;;;;;;;13.70;100.00;101969.13;5065287;28;20056;-71
2022/10/27 01:05:33;;;;;;;7.18;2.67;;;;;;;13.70;100.00;101971.84;5057031;28;20079;-71
2022/10/27 01:08:03;;;;;;;7.55;2.60;;;;;;;13.70;100.00;101972.69;5055591;28;20047;-70
2022/10/27 01:10:28;;;;;;;7.55;2.90;;;;;;;13.73;100.00;101971.41;5056837;28;20342;-70
2022/10/27 01:12:55;;;;;;;8.43;2.55;;;;;;;13.77;100.00;101975.38;5055299;28;20051;-71
2022/10/27 01:15:36;;;;;;;10.40;2.70;;;;;;;13.79;100.00;101975.97;5054162;28;20047;-72
2022/10/27 01:18:20;;;;;;;8.60;2.92;;;;;;;13.80;100.00;101972.22;5055429;28;20029;-70
2022/10/27 01:20:55;;;;;;;7.43;2.80;;;;;;;13.81;100.00;101972.00;5055312;28;20031;-70
2022/10/27 01:24:01;;;;;;;10.95;3.20;;;;;;;13.84;100.00;101978.88;5054975;28;20053;-70
2022/10/27 01:26:38;;;;;;;9.65;2.75;;;;;;;13.85;100.00;101977.00;5055341;28;20025;-71
2022/10/27 01:29:15;;;;;;;9.82;3.10;;;;;;;13.87;100.00;101983.03;5055095;28;20103;-71
2022/10/27 01:31:49;;;;;;;8.95;3.03;;;;;;;13.89;100.00;101975.47;5055212;28;20398;-71
2022/10/27 01:34:26;;;;;;;10.32;2.70;;;;;;;13.93;100.00;101974.00;5056089;28;20033;-70
2022/10/27 01:37:20;;;;;;;9.05;3.15;;;;;;;13.88;100.00;101977.38;5055333;28;20029;-71
2022/10/27 01:39:51;;;;;;;7.78;2.80;;;;;;;13.90;100.00;101985.31;5054517;28;20037;-70
2022/10/27 01:42:50;;;;;;;8.75;3.35;;;;;;;13.95;100.00;101989.06;5059515;28;20335;-70
2022/10/27 01:45:23;;;;;;;7.65;3.03;;;;;;;13.89;100.00;101979.06;5067121;28;20473;-70
2022/10/27 01:47:49;;;;;;;9.75;2.63;;;;;;;13.92;100.00;101983.22;5075247;28;20047;-72
2022/10/27 01:50:18;;;;;;;9.07;2.88;;;;;;;13.93;100.00;101980.25;5057620;28;20456;-70
2022/10/27 01:52:47;;;;;;;9.02;3.10;;;;;;;13.94;100.00;101976.50;5061896;28;20044;-71
2022/10/27 01:55:34;;;;;;;10.20;2.70;;;;;;;13.94;100.00;101976.50;5074543;28;20376;-71
2022/10/27 01:58:44;;;;;;;4.95;2.63;;;;;;;13.98;100.00;101980.47;5074866;28;20033;-71
2022/10/27 02:01:38;;;;;;;6.10;2.67;;;;;;;13.98;100.00;101988.63;5051745;28;20033;-71
2022/10/27 02:04:07;;;;;;;7.95;3.00;;;;;;;13.94;100.00;101972.94;5064204;28;20036;-71
2022/10/27 02:06:44;;;;;;;7.05;2.47;;;;;;;13.90;100.00;101974.44;5074585;28;20440;-71
2022/10/27 02:09:23;;;;;;;7.50;3.08;;;;;;;13.94;100.00;101973.78;5071746;28;20089;-71
2022/10/27 02:11:51;;;;;;;5.40;2.88;;;;;;;13.89;100.00;101973.63;5072476;28;20206;-71
2022/10/27 02:14:19;;;;;;;8.70;2.85;;;;;;;13.87;100.00;101974.88;5074107;28;20023;-70
2022/10/27 02:16:49;;;;;;;7.63;3.00;;;;;;;13.84;100.00;101970.69;5074579;28;20067;-70
2022/10/27 02:19:20;;;;;;;8.95;3.65;;;;;;;13.82;100.00;101970.09;5072939;28;20120;-70
2022/10/27 02:21:48;;;;;;;8.57;2.92;;;;;;;13.80;100.00;101964.88;5054730;28;20056;-71
2022/10/27 02:24:14;;;;;;;9.45;2.90;;;;;;;13.79;100.00;101965.91;5052895;28;20116;-70
2022/10/27 02:26:55;;;;;;;6.32;2.97;;;;;;;13.78;100.00;101960.69;5054320;28;20027;-71
2022/10/27 02:29:26;;;;;;;8.68;2.72;;;;;;;13.80;100.00;101958.63;5055539;28;20460;-71
2022/10/27 02:31:55;;;;;;;7.65;3.17;;;;;;;13.76;100.00;101951.94;5053711;28;20104;-71
2022/10/27 02:34:22;;;;;;;8.82;3.30;;;;;;;13.74;100.00;101957.59;5053727;28;20481;-71
2022/10/27 02:36:47;;;;;;;10.43;3.25;;;;;;;13.72;100.00;101956.97;5054200;28;20040;-71
2022/10/27 02:39:12;;;;;;;6.38;3.15;;;;;;;13.72;100.00;101961.56;5052561;28;20024;-71
2022/10/27 02:41:38;;;;;;;7.22;3.08;;;;;;;13.68;100.00;101965.78;5053500;28;20025;-70
2022/10/27 02:44:03;;;;;;;7.50;2.92;;;;;;;13.65;100.00;101959.72;5053787;28;20473;-71
2022/10/27 02:46:28;;;;;;;7.07;3.30;;;;;;;13.63;100.00;101961.00;5053906;28;20025;-70
2022/10/27 02:48:54;;;;;;;6.63;3.22;;;;;;;13.62;100.00;101952.00;5052504;28;20116;-70
2022/10/27 02:51:19;;;;;;;8.07;3.08;;;;;;;13.59;100.00;101955.16;5058809;28;20123;-71
2022/10/27 02:53:44;;;;;;;7.35;3.42;;;;;;;13.62;100.00;101953.91;5057189;28;20025;-71
2022/10/27 02:56:09;;;;;;;7.10;3.20;;;;;;;13.59;100.00;101955.16;5051669;28;20060;-71
2022/10/27 02:58:35;;;;;;;10.43;3.55;;;;;;;13.62;100.00;101946.56;5053744;28;20029;-71
2022/10/27 03:01:00;;;;;;;9.32;3.40;;;;;;;13.58;100.00;101955.38;5051179;28;20098;-71
2022/10/27 03:03:26;;;;;;;8.85;2.78;;;;;;;13.55;100.00;101944.94;5053299;28;20024;-70
2022/10/27 03:05:51;;;;;;;6.97;3.15;;;;;;;13.52;100.00;101940.78;5053564;28;20368;-71
2022/10/27 03:08:17;;;;;;;6.05;3.15;;;;;;;13.47;100.00;101935.16;5053378;28;20027;-70
2022/10/27 03:10:43;;;;;;;5.28;2.80;;;;;;;13.43;100.00;101932.03;5053538;28;20021;-71
2022/10/27 03:13:08;;;;;;;13.20;3.30;;;;;;;13.46;100.00;101930.75;5053301;28;20033;-71
2022/10/27 03:15:34;;;;;;;8.73;3.65;;;;;;;13.46;100.00;101925.31;5052440;28;20032;-69
2022/10/27 03:17:59;;;;;;;7.68;3.00;;;;;;;13.40;100.00;101921.59;5053440;28;20024;-69
2022/10/27 03:20:24;;;;;;;9.43;2.88;;;;;;;13.44;100.00;101922.00;5051307;28;20036;-70
2022/10/27 03:22:49;;;;;;;9.60;3.53;;;;;;;13.43;100.00;101917.59;5053467;28;20090;-70
2022/10/27 03:25:15;;;;;;;6.75;3.10;;;;;;;13.41;100.00;101920.53;5051748;28;20098;-70
2022/10/27 03:27:42;;;;;;;10.50;3.15;;;;;;;13.42;100.00;101913.22;5053289;28;20444;-69
2022/10/27 03:30:09;;;;;;;7.20;2.92;;;;;;;13.42;100.00;101914.06;5053062;28;20029;-70
2022/10/27 03:32:34;;;;;;;10.48;3.00;;;;;;;13.38;100.00;101918.25;5053118;28;20040;-69
2022/10/27 03:34:59;;;;;;;6.25;2.72;;;;;;;13.37;100.00;101918.47;5052226;28;20044;-71
2022/10/27 03:37:25;;;;;;;7.40;2.97;;;;;;;13.36;100.00;101908.66;5068176;28;20056;-70
2022/10/27 03:39:50;;;;;;;6.82;3.00;;;;;;;13.37;100.00;101911.16;5073390;28;20028;-70
2022/10/27 03:42:15;;;;;;;6.07;2.97;;;;;;;13.33;100.00;101915.34;5076754;28;20088;-69
2022/10/27 03:44:41;;;;;;;5.88;3.15;;;;;;;13.37;100.00;101915.75;5084870;28;20103;-69
2022/10/27 03:47:06;;;;;;;7.47;3.00;;;;;;;13.34;100.00;101908.03;5080655;28;20020;-70
2022/10/27 03:49:31;;;;;;;6.68;3.05;;;;;;;13.32;100.00;101908.22;5055001;28;20114;-69
2022/10/27 03:51:56;;;;;;;6.38;2.92;;;;;;;13.29;100.00;101898.63;5053101;28;20440;-71
2022/10/27 03:54:22;;;;;;;6.85;2.63;;;;;;;13.25;100.00;101897.38;5051834;28;20128;-70
2022/10/27 03:56:47;;;;;;;7.45;2.70;;;;;;;13.29;100.00;101901.34;5062462;28;20039;-70
2022/10/27 03:59:12;;;;;;;6.35;2.60;;;;;;;13.26;100.00;101899.06;5072453;28;20051;-70
2022/10/27 04:01:38;;;;;;;5.20;2.45;;;;;;;13.27;100.00;101900.72;5070129;28;20021;-71
2022/10/27 04:04:05;;;;;;;9.10;2.60;;;;;;;13.18;100.00;101899.31;5069984;28;20032;-70
2022/10/27 04:06:31;;;;;;;5.72;2.70;;;;;;;13.19;100.00;101902.84;5072083;28;20023;-70
2022/10/27 04:08:56;;;;;;;6.63;2.67;;;;;;;13.14;100.00;101902.69;5072600;28;20029;-70
2022/10/27 04:11:21;;;;;;;7.13;3.25;;;;;;;13.17;100.00;101910.41;5072389;28;20024;-71
2022/10/27 04:13:47;;;;;;;8.35;3.15;;;;;;;13.13;100.00;101909.97;5068849;28;20028;-71
2022/10/27 04:16:12;;;;;;;9.25;2.58;;;;;;;13.14;100.00;101911.66;5052228;28;20021;-70
2022/10/27 04:18:37;;;;;;;7.15;2.60;;;;;;;13.16;100.00;101920.41;5051164;28;20365;-71
2022/10/27 04:21:05;;;;;;;8.18;2.72;;;;;;;13.12;100.00;101922.75;5052247;28;20044;-71
2022/10/27 04:23:30;;;;;;;8.82;2.85;;;;;;;13.10;100.00;101924.00;5052083;28;20044;-71
2022/10/27 04:25:55;;;;;;;9.75;2.83;;;;;;;13.14;100.00;101925.25;5070818;28;20474;-70
2022/10/27 04:28:21;;;;;;;6.57;2.80;;;;;;;13.16;100.00;101923.13;5072240;28;20466;-71
2022/10/27 04:30:47;;;;;;;7.57;2.88;;;;;;;13.12;100.00;101924.66;5072359;28;20021;-69
2022/10/27 04:33:12;;;;;;;9.77;2.97;;;;;;;13.14;100.00;101924.44;5073160;28;20106;-70
2022/10/27 04:35:37;;;;;;;10.65;3.30;;;;;;;13.16;100.00;101927.75;5058247;28;20452;-70
2022/10/27 04:38:03;;;;;;;9.65;3.30;;;;;;;13.09;100.00;101927.78;5056346;28;20032;-70
2022/10/27 04:40:28;;;;;;;10.30;3.03;;;;;;;13.10;100.00;101922.13;5056073;28;20032;-71
2022/10/27 04:42:54;;;;;;;10.23;3.10;;;;;;;13.13;100.00;101920.84;5056450;28;20028;-71
2022/10/27 04:45:20;;;;;;;6.32;2.80;;;;;;;13.08;100.00;101920.69;5068689;28;20407;-70
2022/10/27 04:47:45;;;;;;;8.18;3.05;;;;;;;13.12;100.00;101920.03;5076299;28;20024;-71
2022/10/27 04:50:12;;;;;;;9.60;3.00;;;;;;;13.07;100.00;101930.72;5070780;28;20020;-72
2022/10/27 04:52:37;;;;;;;11.23;3.70;;;;;;;13.14;100.00;101929.84;5055818;28;20116;-70
2022/10/27 04:55:02;;;;;;;10.88;3.60;;;;;;;13.12;100.00;101924.66;5055771;28;20459;-70
2022/10/27 04:57:28;;;;;;;9.57;3.05;;;;;;;13.14;100.00;101930.69;5055776;28;20036;-70
2022/10/27 04:59:53;;;;;;;7.90;3.00;;;;;;;13.13;100.00;101923.56;5055138;28;20476;-71
2022/10/27 05:02:18;;;;;;;13.52;3.55;;;;;;;13.17;100.00;101926.72;5073100;28;20028;-70
2022/10/27 05:04:43;;;;;;;8.07;3.20;;;;;;;13.16;100.00;101931.28;5074707;28;20032;-72
2022/10/27 05:07:09;;;;;;;9.27;3.63;;;;;;;13.16;100.00;101931.28;5075773;28;20028;-71
2022/10/27 05:09:34;;;;;;;9.45;3.35;;;;;;;13.19;100.00;101932.75;5075545;28;20020;-71
2022/10/27 05:11:59;;;;;;;8.80;3.53;;;;;;;13.15;100.00;101928.78;5056860;28;20029;-71
2022/10/27 05:14:24;;;;;;;10.82;3.30;;;;;;;13.18;100.00;101922.91;5055461;28;20368;-71
2022/10/27 05:16:50;;;;;;;13.48;3.83;;;;;;;13.18;100.00;101921.06;5055726;28;20040;-71
2022/10/27 05:19:15;;;;;;;9.88;3.60;;;;;;;13.19;100.00;101927.31;5055515;28;20444;-70
2022/10/27 05:21:40;;;;;;;9.75;3.45;;;;;;;13.19;100.00;101933.56;5054140;28;20041;-72
2022/10/27 05:24:06;;;;;;;8.20;3.50;;;;;;;13.20;100.00;101927.09;5055827;28;20516;-70
2022/10/27 05:26:31;;;;;;;10.30;3.50;;;;;;;13.23;100.00;101921.22;5055214;28;20132;-71
2022/10/27 05:28:57;;;;;;;8.98;3.70;;;;;;;13.25;100.00;101919.13;5055696;28;20436;-71
2022/10/27 05:31:22;;;;;;;10.65;3.50;;;;;;;13.25;100.00;101915.56;5069077;28;20030;-71
2022/10/27 05:33:47;;;;;;;11.38;3.70;;;;;;;13.26;100.00;101918.06;5074007;28;20031;-70
2022/10/27 05:36:12;;;;;;;9.50;3.20;;;;;;;13.28;100.00;101920.59;5075556;28;20111;-71
2022/10/27 05:38:38;;;;;;;6.85;3.33;;;;;;;13.26;100.00;101915.34;5075343;28;20045;-70
2022/10/27 05:41:04;;;;;;;6.97;2.92;;;;;;;13.24;100.00;101914.75;5063374;28;20536;-70
2022/10/27 05:43:29;;;;;;;7.25;3.45;;;;;;;13.26;100.00;101904.50;5054018;28;20033;-71
2022/10/27 05:45:54;;;;;;;10.80;3.63;;;;;;;13.28;100.00;101912.44;5055220;28;20028;-71
2022/10/27 05:48:20;;;;;;;8.68;3.28;;;;;;;13.27;100.00;101913.47;5055236;28;20051;-72
2022/10/27 05:50:45;;;;;;;6.57;3.42;;;;;;;13.23;100.00;101907.63;5060903;28;20028;-71
2022/10/27 05:53:10;;;;;;;9.45;3.25;;;;;;;13.22;100.00;101911.41;5073783;28;20035;-70
2022/10/27 05:55:36;;;;;;;8.90;3.40;;;;;;;13.23;100.00;101910.34;5074844;28;20078;-70
2022/10/27 05:58:03;;;;;;;9.15;3.22;;;;;;;13.20;100.00;101908.06;5073722;28;20060;-71
2022/10/27 06:00:33;;;;;;;11.40;3.40;;;;;;;13.22;100.00;101911.41;5065497;28;20525;-70
2022/10/27 06:03:00;;;;;;;9.13;3.22;;;;;;;13.22;100.00;101905.13;5054930;28;20032;-71
2022/10/27 06:05:27;;;;;;;8.45;3.47;;;;;;;13.18;100.00;101903.91;5053177;28;20021;-71
2022/10/27 06:07:53;;;;;;;8.95;3.50;;;;;;;13.19;100.00;101906.41;5054765;28;20023;-71
2022/10/27 06:10:18;;;;;;;9.52;3.80;;;;;;;13.20;100.00;101901.81;5055491;28;20111;-71
2022/10/27 06:12:44;;;;;;;5.97;3.50;;;;;;;13.22;100.00;101902.41;5063773;28;20386;-71
2022/10/27 06:15:09;;;;;;;11.27;4.03;;;;;;;13.23;100.00;101904.91;5073232;28;20044;-71
2022/10/27 06:17:35;;;;;;;10.00;4.10;;;;;;;13.22;100.00;101905.97;5074286;28;20040;-70
2022/10/27 06:20:00;;;;;;;14.05;4.25;;;;;;;13.22;100.00;101905.13;5072344;28;20036;-71
2022/10/27 06:22:26;;;;;;;14.68;4.88;;;;;;;13.22;100.00;101899.72;5073079;28;20040;-71
2022/10/27 06:24:51;;;;;;;14.85;4.15;;;;;;;13.24;100.00;101897.59;5073122;28;20035;-70
2022/10/27 06:27:16;;;;;;;10.55;4.05;;;;;;;13.26;100.00;101899.06;5072800;28;20077;-71
2022/10/27 06:29:41;;;;;;;10.07;3.83;;;;;;;13.25;100.00;101902.81;5074129;28;20040;-71
2022/10/27 06:32:07;;;;;;;12.82;3.97;;;;;;;13.23;100.00;101894.06;5069442;28;20024;-70
2022/10/27 06:34:32;;;;;;;9.52;3.80;;;;;;;13.28;100.00;101896.94;5074022;28;20028;-71
2022/10/27 06:36:57;;;;;;;7.10;3.10;;;;;;;13.23;100.00;101895.94;5074217;28;20029;-73
2022/10/27 06:39:23;;;;;;;7.18;3.17;;;;;;;13.29;100.00;101887.75;5073552;28;20522;-73
2022/10/27 06:41:48;;;;;;;10.73;3.30;;;;;;;13.27;100.00;101894.44;5057720;28;20024;-74
2022/10/27 06:44:13;;;;;;;9.35;3.47;;;;;;;13.25;100.00;101885.69;5054452;28;20384;-76
2022/10/27 06:46:38;;;;;;;8.65;3.08;;;;;;;13.24;100.00;101890.28;5054002;28;20029;-73
2022/10/27 06:49:05;;;;;;;5.60;3.20;;;;;;;13.24;100.00;101892.16;5054233;28;20052;-72
2022/10/27 06:51:30;;;;;;;9.95;3.20;;;;;;;13.25;100.00;101886.50;5064182;28;20079;-75
2022/10/27 06:53:56;;;;;;;8.98;3.13;;;;;;;13.22;100.00;101886.94;5073843;28;20028;-76
2022/10/27 06:56:21;;;;;;;11.10;3.60;;;;;;;13.21;100.00;101876.28;5072330;28;20089;-71
2022/10/27 06:58:47;;;;;;;9.93;3.38;;;;;;;13.23;100.00;101874.19;5073759;28;20123;-72
2022/10/27 07:01:12;;;;;;;10.32;3.20;;;;;;;13.19;100.00;101872.97;5065881;28;20024;-72
2022/10/27 07:03:38;;;;;;;9.68;3.40;;;;;;;13.21;100.00;101879.00;5067414;28;20123;-73
2022/10/27 07:06:03;;;;;;;7.47;3.45;;;;;;;13.25;100.00;101883.78;5063836;28;20081;-73
2022/10/27 07:08:29;;;;;;;10.63;3.72;;;;;;;13.22;100.00;101881.50;5055179;28;20474;-72
2022/10/27 07:10:54;;;;;;;8.90;3.53;;;;;;;13.25;100.00;101885.69;5054827;28;20079;-72
2022/10/27 07:13:19;;;;;;;9.90;3.30;;;;;;;13.21;100.00;101881.72;5059716;28;20043;-73
2022/10/27 07:15:45;;;;;;;8.18;3.40;;;;;;;13.23;100.00;101896.78;5058127;28;20435;-72
2022/10/27 07:18:10;;;;;;;9.63;3.70;;;;;;;13.24;100.00;101890.28;5072926;28;20025;-72
2022/10/27 07:20:39;;;;;;;8.30;3.90;;;;;;;13.21;100.00;101889.88;5072325;28;20407;-72
2022/10/27 07:23:07;;;;;;;9.43;3.40;;;;;;;13.19;100.00;101892.81;5060840;28;20041;-71
2022/10/27 07:25:33;;;;;;;7.35;3.63;;;;;;;13.22;100.00;101889.66;5069532;28;20036;-70
2022/10/27 07:28:01;;;;;;;7.90;3.85;;;;;;;13.23;100.00;101887.78;5092978;28;20024;-72
2022/10/27 07:30:32;;;;;;;13.30;3.60;;;;;;;13.28;100.00;101887.97;5090478;28;20111;-71
2022/10/27 07:32:57;;;;;;;6.57;3.38;;;;;;;13.32;100.00;101880.22;5066886;28;20032;-72
2022/10/27 07:35:23;;;;;;;7.78;2.85;;;;;;;13.35;100.00;101885.25;5066227;28;20078;-72
2022/10/27 07:37:49;;;;;;;7.50;3.05;;;;;;;13.37;100.00;101878.53;5052864;28;20371;-72
2022/10/27 07:40:17;;;;;;;7.78;3.10;;;;;;;13.45;100.00;101882.88;5060396;28;20102;-74
2022/10/27 07:42:55;;;;;;;8.23;3.08;;;;;;;13.49;100.00;101880.56;5056944;28;20029;-74
2022/10/27 07:45:22;;;;;;;5.47;3.17;;;;;;;13.55;100.00;101885.13;5052218;28;20071;-73
2022/10/27 07:47:49;;;;;;;8.70;2.97;;;;;;;13.62;100.00;101896.78;5063018;28;20119;-71
2022/10/27 07:50:16;;;;;;;7.30;3.13;;;;;;;13.69;100.00;101894.84;5055990;28;20020;-71
2022/10/27 07:52:43;;;;;;;8.02;3.15;;;;;;;13.75;100.00;101901.28;5052601;28;20115;-69
2022/10/27 07:55:10;;;;;;;9.43;3.08;;;;;;;13.80;100.00;101904.19;5049850;28;20457;-72
2022/10/27 07:57:35;;;;;;;13.38;3.70;;;;;;;13.84;100.00;101894.53;5060411;28;20058;-72
2022/10/27 08:00:02;;;;;;;5.90;2.60;;;;;;;13.92;100.00;101902.44;5052275;28;20040;-69
2022/10/27 08:02:27;;;;;;;7.00;2.75;;;;;;;13.96;100.00;101898.19;5048076;28;20119;-71
2022/10/27 08:04:53;;;;;;;8.20;2.58;;;;;;;13.98;100.00;101893.38;5059801;28;20043;-71
2022/10/27 08:07:19;;;;;;;5.32;2.30;;;;;;;14.00;100.00;101885.81;5072306;28;20081;-71
2022/10/27 08:09:44;;;;;;;4.50;2.25;;;;;;;14.07;100.00;101890.34;5071923;28;20020;-71
2022/10/27 08:12:09;;;;;;;8.05;2.40;;;;;;;14.10;100.00;101884.47;5072017;28;20028;-70
2022/10/27 08:14:35;;;;;;;5.32;2.13;;;;;;;14.11;100.00;101884.25;5066985;28;20021;-71
2022/10/27 08:17:00;;;;;;;4.13;2.10;;;;;;;14.16;100.00;101886.28;5064747;28;20028;-69
2022/10/27 08:19:25;;;;;;;5.95;2.08;;;;;;;14.21;100.00;101875.59;5071834;28;20024;-68
2022/10/27 08:21:50;;;;;;;5.97;2.17;;;;;;;14.26;100.00;101869.47;5071915;28;20433;-68
2022/10/27 08:24:16;;;;;;;7.20;2.15;;;;;;;14.29;100.00;101880.72;5053942;28;20063;-72
2022/10/27 08:26:41;;;;;;;8.13;2.65;;;;;;;14.37;100.00;101876.88;5063953;28;20401;-72
2022/10/27 08:29:07;;;;;;;9.88;2.03;;;;;;;14.45;100.00;101873.06;5071864;28;20577;-71
2022/10/27 08:31:32;;;;;;;7.13;1.90;;;;;;;14.52;100.00;101873.78;5061729;28;20175;-71
2022/10/27 08:33:57;;;;;;;7.18;2.08;;;;;;;14.60;100.00;101878.94;5065391;28;20029;-72
2022/10/27 08:36:23;;;;;;;7.18;2.13;;;;;;;14.66;100.00;101880.78;5071551;28;20035;-72
2022/10/27 08:38:48;;;;;;;4.50;1.70;;;;;;;14.77;100.00;101871.03;5072721;28;20036;-71
2022/10/27 08:41:22;;;;;;;6.35;1.92;;;;;;;14.85;100.00;101867.16;5092468;28;20035;-71
2022/10/27 08:44:07;;;;;;;7.43;2.13;;;;;;;14.99;100.00;101870.53;5052106;28;20107;-71
2022/10/27 08:46:41;;;;;;;3.78;1.67;;;;;;;15.05;100.00;101873.19;5067835;28;20028;-73
2022/10/27 08:49:27;;;;;;;4.60;1.50;;;;;;;15.11;100.00;101868.69;5068934;28;20033;-70
2022/10/27 08:51:57;;;;;;;8.35;1.60;;;;;;;15.16;100.00;101865.31;5055878;28;20032;-72
2022/10/27 08:54:24;;;;;;;2.47;1.52;;;;;;;15.22;100.00;101861.66;5055990;28;20071;-73
2022/10/27 08:56:52;;;;;;;6.25;1.67;;;;;;;15.27;100.00;101852.78;5067652;28;20106;-74
2022/10/27 08:59:22;;;;;;;4.68;1.83;;;;;;;15.31;100.00;101849.34;5053077;28;20025;-76
2022/10/27 09:02:01;;;;;;;3.78;1.20;;;;;;;15.37;100.00;101844.88;5050539;28;20075;-74
2022/10/27 09:05:03;;;;;;;8.05;1.50;;;;;;;15.46;100.00;101828.97;5071957;28;20024;-75
2022/10/27 09:07:39;;;;;;;6.50;1.48;;;;;;;15.56;100.00;101831.97;5071882;28;20442;-70
2022/10/27 09:10:18;;;;;;;3.58;1.00;;;;;;;15.62;100.00;101828.28;5066628;28;20079;-73
2022/10/27 09:12:55;;;;;;;5.57;1.30;;;;;;;15.71;100.00;101837.78;5060350;28;20573;-70
2022/10/27 09:15:49;;;;;;;3.45;1.35;;;;;;;15.76;100.00;101829.75;5072093;28;20025;-71
2022/10/27 09:18:27;;;;;;;3.45;0.93;;;;;;;15.84;100.00;101841.44;5071825;28;20039;-70
2022/10/27 09:20:55;;;;;;;5.35;1.55;;;;;;;15.90;100.00;101835.03;5075494;28;20025;-70
2022/10/27 09:23:26;;;;;;;4.68;1.50;;;;;;;15.97;100.00;101840.34;5059529;28;20029;-70
2022/10/27 09:25:53;;;;;;;6.13;1.30;;;;;;;16.00;100.00;101835.22;5055777;28;20036;-71
2022/10/27 09:28:29;;;;;;;4.55;1.52;;;;;;;16.03;100.00;101832.03;5055526;28;20029;-70
2022/10/27 09:30:56;;;;;;;5.38;1.40;;;;;;;16.11;95.97;101830.88;5055549;28;20037;-71
2022/10/27 09:33:28;;;;;;;4.32;1.33;;;;;;;16.16;96.19;101821.97;5069480;28;20028;-71
2022/10/27 09:35:53;;;;;;;4.45;1.45;;;;;;;16.18;93.91;101817.06;5075701;28;20029;-71
2022/10/27 09:38:24;;;;;;;9.23;1.45;;;;;;;16.27;94.79;101819.22;5075083;28;20032;-71
2022/10/27 09:40:51;;;;;;;3.65;1.30;;;;;;;16.30;93.91;101818.75;5056082;28;20040;-71
2022/10/27 09:43:19;;;;;;;5.28;1.60;;;;;;;16.35;95.78;101812.56;5068644;28;20418;-71
2022/10/27 09:45:49;;;;;;;10.57;1.35;;;;;;;16.40;96.10;101803.63;5058450;28;20028;-71
2022/10/27 09:48:21;;;;;;;6.03;1.60;;;;;;;16.46;94.89;101805.41;5059621;28;20028;-72
2022/10/27 09:50:56;;;;;;;3.90;1.42;;;;;;;16.48;94.58;101809.53;5074569;28;20428;-71
2022/10/27 09:53:46;;;;;;;4.32;1.40;;;;;;;16.55;97.36;101811.31;5073783;28;20040;-72
2022/10/27 09:56:18;;;;;;;6.60;1.42;;;;;;;16.66;94.46;101807.72;5059113;28;20029;-70
2022/10/27 09:59:00;;;;;;;5.15;1.65;;;;;;;16.76;93.89;101804.38;5053884;28;20056;-72
2022/10/27 10:01:26;;;;;;;;;;;;;;;16.81;100.00;101813.47;5054678;28;20036;-72
2022/10/27 10:04:01;;;;;;;5.97;1.55;;;;;;;16.90;94.55;101815.88;5061021;28;20344;-73
2022/10/27 10:06:36;;;;;;;4.68;1.17;;;;;;;16.97;94.12;101813.81;5056530;28;20035;-72
2022/10/27 10:09:30;;;;;;;7.25;1.55;;;;;;;17.05;94.89;101807.13;5063394;28;20048;-72
2022/10/27 10:12:20;;;;;;;4.75;1.30;;;;;;;17.11;94.22;101797.94;5050713;28;20430;-71
2022/10/27 10:14:46;;;;;;;2.95;1.20;;;;;;;17.14;90.77;101786.50;5072420;28;20037;-74
2022/10/27 10:17:19;;;;;;;3.65;1.58;;;;;;;17.28;89.34;101789.75;5072179;28;20417;-72
2022/10/27 10:19:46;;;;;;;3.40;1.20;;;;;;;17.36;89.12;101789.34;5066157;28;20024;-73
2022/10/27 10:22:21;;;;;;;3.13;1.60;;;;;;;17.40;87.96;101785.03;5053579;28;20097;-71
2022/10/27 10:24:46;;;;;;;3.85;1.25;;;;;;;17.40;86.89;101789.69;5053455;28;20036;-75
2022/10/27 10:27:23;;;;;;;5.45;1.85;;;;;;;17.42;88.04;101791.09;5053561;28;20017;-71
2022/10/27 10:29:49;;;;;;;10.40;1.55;;;;;;;17.41;87.64;101792.19;5058525;28;20037;-72
2022/10/27 10:32:17;;;;;;;5.53;1.60;;;;;;;17.46;86.24;101797.72;5053787;28;20033;-72
2022/10/27 10:34:43;;;;;;;7.68;1.60;;;;;;;17.48;85.51;101795.59;5069450;28;20025;-72
2022/10/27 10:37:29;;;;;;;3.67;1.30;;;;;;;17.53;89.05;101787.44;5055023;28;20060;-72
2022/10/27 10:40:07;;;;;;;6.75;1.45;;;;;;;17.58;85.75;101785.88;5054203;28;20037;-72
2022/10/27 10:42:32;;;;;;;4.22;1.80;;;;;;;17.57;85.71;101767.78;5052644;28;20392;-71
2022/10/27 10:45:17;;;;;;;5.60;1.48;;;;;;;17.62;89.52;101770.59;5071916;28;20451;-70
2022/10/27 10:47:46;;;;;;;6.43;1.73;;;;;;;17.59;86.40;101768.34;5065445;28;20025;-73
2022/10/27 10:50:13;;;;;;;180.35;164.13;;;;;;;17.65;87.85;101762.72;5053926;28;20100;-72
2022/10/27 10:52:43;;;;;;;21.23;17.17;;;;;;;17.71;85.55;101769.94;5053183;28;20029;-72
2022/10/27 10:55:26;;;;;;;3.67;1.77;;;;;;;17.79;86.31;101768.69;5053896;28;20025;-70
2022/10/27 10:57:54;;;;;;;3.90;1.45;;;;;;;17.83;85.89;101772.59;5053462;28;20032;-70
2022/10/27 11:00:20;;;;;;;6.20;1.65;;;;;;;17.83;84.21;101769.00;5052179;28;20076;-71
2022/10/27 11:02:58;;;;;;;3.63;1.63;;;;;;;17.88;84.38;101763.59;5051828;28;20052;-72
2022/10/27 11:05:29;;;;;;;5.85;1.50;;;;;;;17.87;82.96;101760.06;5052920;28;20035;-71
2022/10/27 11:07:54;;;;;;;8.88;1.70;;;;;;;17.89;82.50;101768.06;5053587;28;20040;-71
2022/10/27 11:10:29;;;;;;;3.83;1.27;;;;;;;17.91;87.57;101765.88;5060182;28;20025;-71
2022/10/27 11:13:05;;;;;;;8.70;1.60;;;;;;;17.95;85.08;101771.66;5052759;28;20029;-71
2022/10/27 11:15:53;;;;;;;4.47;1.40;;;;;;;17.93;87.47;101771.09;5053418;28;20115;-72
2022/10/27 11:18:33;;;;;;;5.68;1.90;;;;;;;17.92;86.93;101764.81;5052090;28;20506;-71
2022/10/27 11:21:08;;;;;;;8.25;1.90;;;;;;;17.93;86.05;101757.41;5053172;28;20107;-71
2022/10/27 11:23:48;;;;;;;4.97;1.80;;;;;;;17.98;86.64;101755.56;5058413;28;20147;-72
2022/10/27 11:26:19;;;;;;;4.40;1.37;;;;;;;17.96;86.52;101754.97;5071670;28;20189;-72